Newcastle, Wyoming
Current Conditions -  °F | °C
As of 1:53 PM on Thursday 20 Nov 2014 (Local Time) from KCUT Reporting Station
Clear Clear  
Wind Chill: 36°   Ceiling: Unl
Heat Index: 42°   Visibility: 10mi
Dew Point: 17°   Wind: 12mph
Humidity: 37%   Direction: 280°W
Pressure: 29.88"   Gusts: NA
Location:  43.85°N, 104.2°W
Report Text: KCUT 202053Z AUTO 28010KT 10SM CLR 06/M08 A2988 RMK AO2 SLP137 T00561083 56009
Loading
Personal Weather Stations






























Interactive Weather Map New forecast layout! Learn more

10-Day Weather Forecast

Advertisements
Track Severe Weather on mobile